Japan Airlines Virtual Airport Information Service

Kobe Airport

ICAO: RJBE Country: Japan
Latitude: 34.6328 Longitude: 135.224
Latest Arrival : SKY146 (RJFU-RJBE) Latest Departure : SNJ23 (RJBE-ROAH)


WX CaptureLIVE
Data provided by noaa.gov | Fetched at 08:56:23

METAR : RJBE 090800Z 28003KT 9999 FEW010 BKN025 BKN/// 25/21 Q1008

TAF :


Runway Data for RJBE
Data provided by openaviationdata.com

Runway ID Mag Var Hdg Length Elevation Surface ILS Freq ILS Id ILS Slope

Kobe Airport, Japan
Use only for reference purposes



Not for navigational purposes.